Time;durP1;ratioP1;P1;durP2;ratioP2;P2;SDS_P1;SDS_P2;PMS_P1;PMS_P2;Temp;Humidity;BMP_temperature;BMP_pressure;BME280_temperature;BME280_humidity;BME280_pressure;Samples;Min_cycle;Max_cycle;Signal;HPM_P1;HPM_P2
2023/03/31 00:02:57;;;;;;;14.18;10.88;;;;;;;;;;4982853;28;20133;-78
2023/03/31 00:05:23;;;;;;;8.88;7.60;;;;;;;;;;4992937;28;20030;-80
2023/03/31 00:07:52;;;;;;;4.10;3.00;;;;;;;;;;5006410;28;20038;-81
2023/03/31 00:10:18;;;;;;;5.60;4.20;;;;;;;;;;5006461;28;20025;-79
2023/03/31 00:12:43;;;;;;;6.03;3.05;;;;;;;;;;5010643;28;20026;-78
2023/03/31 00:15:08;;;;;;;4.20;2.80;;;;;;;;;;5036949;28;20425;-79
2023/03/31 00:17:34;;;;;;;5.22;2.70;;;;;;;;;;5033833;28;20468;-80
2023/03/31 00:20:04;;;;;;;5.40;3.17;;;;;;;;;;5010054;28;20507;-80
2023/03/31 00:22:29;;;;;;;7.28;2.72;;;;;;;;;;5006928;28;20418;-80
2023/03/31 00:24:55;;;;;;;3.72;2.83;;;;;;;;;;5005210;28;20022;-80
2023/03/31 00:27:20;;;;;;;3.65;2.83;;;;;;;;;;5002344;28;20138;-80
2023/03/31 00:29:46;;;;;;;4.28;2.60;;;;;;;;;;5014414;28;20053;-80
2023/03/31 00:32:13;;;;;;;3.75;2.63;;;;;;;;;;5027396;28;20025;-80
2023/03/31 00:34:39;;;;;;;4.43;2.60;;;;;;;;;;5010534;28;20029;-80
2023/03/31 00:37:05;;;;;;;7.68;4.47;;;;;;;;;;5017046;28;20498;-80
2023/03/31 00:39:33;;;;;;;7.88;6.60;;;;;;;;;;5027811;28;20029;-80
2023/03/31 00:42:01;;;;;;;6.03;4.80;;;;;;;;;;5015718;28;20029;-79
2023/03/31 00:44:28;;;;;;;9.38;5.05;;;;;;;;;;5009274;28;20022;-78
2023/03/31 00:47:14;;;;;;;6.43;4.97;;;;;;;;;;5026867;28;20044;-81
2023/03/31 00:49:45;;;;;;;11.52;4.82;;;;;;;;;;5036873;28;20048;-79
2023/03/31 00:52:31;;;;;;;5.88;4.68;;;;;;;;;;5027222;28;20025;-77
2023/03/31 00:55:02;;;;;;;8.55;4.13;;;;;;;;;;5008506;28;20022;-78
2023/03/31 00:57:31;;;;;;;8.48;4.57;;;;;;;;;;5002926;28;20048;-78
2023/03/31 00:59:58;;;;;;;4.00;3.17;;;;;;;;;;5002569;28;20049;-78
2023/03/31 01:02:24;;;;;;;5.68;3.67;;;;;;;;;;5002507;28;20795;-78
2023/03/31 01:04:56;;;;;;;6.32;3.75;;;;;;;;;;5002133;28;20079;-78
2023/03/31 01:07:36;;;;;;;8.20;3.35;;;;;;;;;;5003647;28;20030;-78
2023/03/31 01:10:03;;;;;;;4.95;3.55;;;;;;;;;;5003186;28;20029;-77
2023/03/31 01:12:30;;;;;;;4.53;3.67;;;;;;;;;;5002089;28;20080;-78
2023/03/31 01:14:55;;;;;;;6.85;4.72;;;;;;;;;;5006902;28;20025;-80
2023/03/31 01:17:21;;;;;;;5.30;4.80;;;;;;;;;;5003991;28;20018;-78
2023/03/31 01:19:50;;;;;;;6.55;4.70;;;;;;;;;;5003039;28;20036;-79
2023/03/31 01:22:39;;;;;;;6.22;4.70;;;;;;;;;;5002336;28;20403;-78
2023/03/31 01:25:04;;;;;;;6.60;4.45;;;;;;;;;;4939507;28;20026;-79
2023/03/31 01:27:41;;;;;;;5.65;4.38;;;;;;;;;;5009222;28;20033;-81
2023/03/31 01:30:29;;;;;;;5.97;4.25;;;;;;;;;;5030427;28;20034;-81
2023/03/31 01:33:13;;;;;;;10.93;7.88;;;;;;;;;;5001456;28;20034;-81
2023/03/31 01:35:51;;;;;;;8.13;6.72;;;;;;;;;;5008157;28;20065;-79
2023/03/31 01:38:25;;;;;;;8.07;5.00;;;;;;;;;;5000976;28;20022;-82
2023/03/31 01:40:51;;;;;;;7.13;5.28;;;;;;;;;;5004716;28;20006;-79
2023/03/31 01:43:16;;;;;;;10.88;6.47;;;;;;;;;;5038375;28;20060;-79
2023/03/31 01:45:58;;;;;;;11.88;8.38;;;;;;;;;;5027336;28;20033;-81
2023/03/31 01:48:32;;;;;;;16.42;11.93;;;;;;;;;;5014667;28;20822;-77
2023/03/31 01:51:21;;;;;;;23.88;14.75;;;;;;;;;;5005673;28;20116;-78
2023/03/31 01:53:53;;;;;;;9.43;7.80;;;;;;;;;;4996127;28;20045;-79
2023/03/31 01:56:21;;;;;;;9.45;4.70;;;;;;;;;;5018876;28;20022;-80
2023/03/31 02:09:43;;;;;;;8.80;5.95;;;;;;;;;;5957614;23;20283;-78
2023/03/31 02:12:10;;;;;;;7.97;5.82;;;;;;;;;;4999209;28;20026;-80
2023/03/31 02:14:37;;;;;;;8.68;6.40;;;;;;;;;;4990973;28;20026;-80
2023/03/31 02:17:04;;;;;;;6.03;5.38;;;;;;;;;;4977120;28;20042;-80
2023/03/31 02:19:35;;;;;;;6.82;6.10;;;;;;;;;;4978227;28;20014;-80
2023/03/31 02:22:02;;;;;;;8.00;5.40;;;;;;;;;;4992135;28;20045;-80
2023/03/31 02:24:28;;;;;;;9.20;6.43;;;;;;;;;;4983715;28;20053;-80
2023/03/31 02:27:00;;;;;;;7.53;6.00;;;;;;;;;;4998134;28;20507;-80
2023/03/31 02:29:25;;;;;;;5.22;4.72;;;;;;;;;;4995701;28;20018;-80
2023/03/31 02:32:03;;;;;;;4.72;3.97;;;;;;;;;;4975959;28;20034;-81
2023/03/31 02:34:28;;;;;;;5.40;3.88;;;;;;;;;;4978918;28;20117;-81
2023/03/31 02:36:54;;;;;;;7.13;4.88;;;;;;;;;;4986196;28;20133;-80
2023/03/31 02:39:22;;;;;;;5.00;4.47;;;;;;;;;;4990649;28;20026;-80
2023/03/31 02:41:47;;;;;;;7.05;4.50;;;;;;;;;;4990269;28;20097;-80
2023/03/31 02:44:13;;;;;;;7.45;4.35;;;;;;;;;;4990761;28;20026;-79
2023/03/31 02:46:39;;;;;;;4.45;3.78;;;;;;;;;;4991433;28;20586;-80
2023/03/31 02:49:06;;;;;;;4.00;3.60;;;;;;;;;;4974093;28;20089;-80
2023/03/31 02:51:46;;;;;;;5.80;3.75;;;;;;;;;;4990135;28;20037;-80
2023/03/31 02:54:30;;;;;;;5.40;3.70;;;;;;;;;;4991430;28;20065;-80
2023/03/31 02:57:14;;;;;;;6.88;3.85;;;;;;;;;;4984981;28;20054;-81
2023/03/31 02:59:58;;;;;;;4.80;4.30;;;;;;;;;;4995186;28;20026;-80
2023/03/31 03:02:26;;;;;;;4.45;4.05;;;;;;;;;;4996641;28;20073;-81
2023/03/31 03:05:10;;;;;;;6.72;4.28;;;;;;;;;;5005659;28;20049;-81
2023/03/31 03:07:45;;;;;;;5.70;4.40;;;;;;;;;;5010932;28;20022;-81
2023/03/31 03:10:14;;;;;;;7.72;3.65;;;;;;;;;;5002254;28;20046;-81
2023/03/31 03:12:59;;;;;;;6.65;4.68;;;;;;;;;;5004798;28;20022;-82
2023/03/31 03:15:32;;;;;;;5.57;4.18;;;;;;;;;;4995410;28;20030;-81
2023/03/31 03:17:57;;;;;;;5.38;3.97;;;;;;;;;;5002015;28;20030;-81
2023/03/31 03:20:23;;;;;;;4.07;3.60;;;;;;;;;;5003792;28;20070;-81
2023/03/31 03:22:48;;;;;;;11.48;7.55;;;;;;;;;;4998804;28;20091;-80
2023/03/31 03:25:16;;;;;;;10.98;8.18;;;;;;;;;;4991921;28;20519;-81
2023/03/31 03:27:41;;;;;;;8.50;7.45;;;;;;;;;;4993014;28;20041;-82
2023/03/31 03:32:41;;;;;;;9.75;8.30;;;;;;;;;;5240542;23;20061;-81
2023/03/31 03:35:07;;;;;;;9.18;5.97;;;;;;;;;;5035499;28;20049;-81
2023/03/31 03:37:33;;;;;;;9.48;7.15;;;;;;;;;;5020721;28;20018;-82
2023/03/31 03:39:58;;;;;;;9.82;6.90;;;;;;;;;;5038969;28;20006;-80
2023/03/31 03:57:54;;;;;;;9.52;8.02;;;;;;;;;;5082946;23;20081;-80
2023/03/31 04:00:19;;;;;;;12.65;10.02;;;;;;;;;;5011726;28;20022;-80
2023/03/31 04:02:45;;;;;;;13.40;10.82;;;;;;;;;;5028616;28;20026;-81
2023/03/31 04:05:11;;;;;;;10.80;8.75;;;;;;;;;;5029248;28;20010;-78
2023/03/31 04:07:36;;;;;;;22.33;17.80;;;;;;;;;;5030665;28;20419;-79
2023/03/31 04:10:05;;;;;;;23.95;17.83;;;;;;;;;;5031791;28;20022;-81
2023/03/31 04:12:32;;;;;;;16.20;14.15;;;;;;;;;;5033262;28;20029;-80
2023/03/31 04:14:58;;;;;;;14.07;10.20;;;;;;;;;;5031259;28;20453;-79
2023/03/31 04:17:31;;;;;;;15.65;10.85;;;;;;;;;;5004147;28;20022;-80
2023/03/31 04:20:00;;;;;;;13.25;7.90;;;;;;;;;;5033059;28;20002;-80
2023/03/31 05:04:28;;;;;;;7.00;6.32;;;;;;;;;;5025798;23;20055;-81
2023/03/31 05:06:54;;;;;;;9.68;4.90;;;;;;;;;;4991607;28;20015;-81
2023/03/31 05:51:55;;;;;;;5.68;5.18;;;;;;;;;;6107608;23;20040;-79
2023/03/31 05:57:01;;;;;;;6.57;4.35;;;;;;;;;;5392302;23;20042;-81
2023/03/31 05:59:27;;;;;;;5.85;4.07;;;;;;;;;;5035678;28;20109;-80
2023/03/31 06:01:52;;;;;;;6.22;4.53;;;;;;;;;;5009242;28;20029;-81
2023/03/31 06:04:18;;;;;;;10.25;4.53;;;;;;;;;;5029838;28;20014;-83
2023/03/31 06:06:44;;;;;;;6.55;5.43;;;;;;;;;;5025059;28;20053;-81
2023/03/31 06:09:13;;;;;;;4.95;4.07;;;;;;;;;;5012078;28;20511;-83
2023/03/31 06:11:38;;;;;;;5.32;4.22;;;;;;;;;;4979773;28;20030;-84
2023/03/31 06:14:04;;;;;;;6.23;3.40;;;;;;;;;;5004040;28;20026;-83
2023/03/31 06:16:29;;;;;;;4.68;3.40;;;;;;;;;;4986872;28;20265;-83
2023/03/31 06:18:54;;;;;;;6.32;3.65;;;;;;;;;;5003371;28;20613;-87
2023/03/31 06:21:20;;;;;;;7.60;3.88;;;;;;;;;;4987174;28;20491;-86
2023/03/31 06:23:45;;;;;;;5.68;4.22;;;;;;;;;;4986116;28;20033;-84
2023/03/31 06:26:12;;;;;;;5.30;3.40;;;;;;;;;;4961284;28;20027;-84
2023/03/31 06:28:38;;;;;;;7.30;3.15;;;;;;;;;;4975296;28;20479;-79
2023/03/31 06:31:05;;;;;;;5.55;3.38;;;;;;;;;;4994206;28;20022;-83
2023/03/31 06:33:31;;;;;;;5.88;2.90;;;;;;;;;;4997797;28;20022;-79
2023/03/31 06:35:58;;;;;;;4.75;2.90;;;;;;;;;;5000494;28;20025;-80
2023/03/31 06:38:23;;;;;;;5.03;3.03;;;;;;;;;;4963450;28;20026;-80
2023/03/31 06:40:49;;;;;;;7.57;3.30;;;;;;;;;;4979348;28;20133;-81
2023/03/31 06:43:14;;;;;;;5.22;3.13;;;;;;;;;;4990398;28;20113;-78
2023/03/31 06:45:40;;;;;;;3.97;2.73;;;;;;;;;;4995472;28;20484;-77
2023/03/31 06:48:05;;;;;;;6.47;3.22;;;;;;;;;;4968007;28;20293;-79
2023/03/31 06:50:31;;;;;;;6.55;3.28;;;;;;;;;;4970708;28;20010;-79
2023/03/31 06:52:56;;;;;;;7.75;3.17;;;;;;;;;;4983837;28;20022;-79
2023/03/31 06:55:22;;;;;;;6.30;3.30;;;;;;;;;;5004999;28;20025;-79
2023/03/31 06:57:47;;;;;;;6.18;3.25;;;;;;;;;;4982158;28;20555;-78
2023/03/31 07:00:12;;;;;;;8.97;3.60;;;;;;;;;;4973295;28;20025;-79
2023/03/31 07:02:38;;;;;;;4.90;3.38;;;;;;;;;;4977645;28;20291;-82
2023/03/31 07:05:05;;;;;;;3.78;3.40;;;;;;;;;;4978359;28;20050;-83
2023/03/31 07:07:31;;;;;;;3.85;2.95;;;;;;;;;;4982287;28;20034;-78
2023/03/31 07:09:56;;;;;;;7.60;3.75;;;;;;;;;;4973900;28;20057;-79
2023/03/31 07:12:22;;;;;;;3.70;3.30;;;;;;;;;;4983880;28;20468;-80
2023/03/31 07:14:47;;;;;;;6.13;4.53;;;;;;;;;;4975876;28;20035;-79
2023/03/31 07:17:12;;;;;;;5.97;3.58;;;;;;;;;;4971487;28;20035;-81
2023/03/31 07:19:40;;;;;;;5.38;3.45;;;;;;;;;;4998752;28;20113;-80
2023/03/31 07:22:06;;;;;;;6.82;3.20;;;;;;;;;;4974705;28;20852;-85
2023/03/31 07:36:21;;;;;;;4.00;3.00;;;;;;;;;;5084601;27;20507;-82
2023/03/31 07:38:48;;;;;;;3.90;2.60;;;;;;;;;;5073081;28;20119;-81
2023/03/31 07:41:15;;;;;;;4.97;3.33;;;;;;;;;;5070764;28;20548;-82
2023/03/31 07:43:40;;;;;;;4.43;2.78;;;;;;;;;;5061880;28;20398;-83
2023/03/31 07:46:07;;;;;;;3.88;3.00;;;;;;;;;;5068939;28;20020;-82
2023/03/31 07:48:32;;;;;;;4.47;2.95;;;;;;;;;;5058773;28;20506;-81
2023/03/31 07:50:58;;;;;;;12.18;4.20;;;;;;;;;;5070175;28;20041;-81
2023/03/31 07:53:23;;;;;;;4.05;2.72;;;;;;;;;;5059109;28;20505;-82
2023/03/31 07:55:48;;;;;;;6.10;2.60;;;;;;;;;;5067550;28;20135;-81
2023/03/31 07:58:14;;;;;;;5.63;2.60;;;;;;;;;;5073471;28;20016;-82
2023/03/31 08:00:39;;;;;;;5.93;2.70;;;;;;;;;;5067425;28;20039;-81
2023/03/31 08:03:05;;;;;;;3.63;2.80;;;;;;;;;;5053503;28;20024;-79
2023/03/31 08:05:31;;;;;;;5.07;2.50;;;;;;;;;;5059193;28;20318;-83
2023/03/31 08:07:56;;;;;;;6.32;2.67;;;;;;;;;;5064746;28;20482;-79
2023/03/31 08:10:23;;;;;;;6.35;2.75;;;;;;;;;;5065697;28;20098;-83
2023/03/31 08:12:48;;;;;;;6.57;2.72;;;;;;;;;;5065141;28;20525;-83
2023/03/31 08:15:13;;;;;;;6.60;4.00;;;;;;;;;;5060340;28;20055;-80
2023/03/31 08:17:39;;;;;;;8.40;4.10;;;;;;;;;;5066645;28;20104;-82
2023/03/31 08:20:06;;;;;;;9.68;5.07;;;;;;;;;;5067870;28;20017;-80
2023/03/31 08:22:31;;;;;;;6.70;3.85;;;;;;;;;;5054117;28;20028;-79
2023/03/31 08:24:57;;;;;;;7.30;3.25;;;;;;;;;;5048237;28;20174;-80
2023/03/31 08:27:22;;;;;;;4.78;3.47;;;;;;;;;;5065787;28;20025;-80
2023/03/31 08:29:48;;;;;;;7.37;3.90;;;;;;;;;;5062148;28;20098;-78
2023/03/31 08:32:14;;;;;;;10.63;4.82;;;;;;;;;;5069777;28;20650;-79
2023/03/31 08:34:41;;;;;;;10.05;4.72;;;;;;;;;;5047990;28;20414;-79
2023/03/31 08:37:07;;;;;;;8.70;4.40;;;;;;;;;;5043091;28;20028;-80
2023/03/31 08:39:33;;;;;;;6.38;4.45;;;;;;;;;;5042054;28;20019;-80
2023/03/31 08:42:17;;;;;;;9.95;4.72;;;;;;;;;;5057088;28;20021;-80
2023/03/31 08:44:50;;;;;;;12.10;4.68;;;;;;;;;;5049026;28;20089;-80
2023/03/31 08:47:17;;;;;;;6.47;4.40;;;;;;;;;;5056512;28;20552;-80
2023/03/31 08:49:44;;;;;;;7.03;4.78;;;;;;;;;;5052660;28;21780;-78
2023/03/31 08:52:15;;;;;;;9.13;4.40;;;;;;;;;;5040015;28;20028;-81
2023/03/31 08:54:48;;;;;;;5.75;4.50;;;;;;;;;;5049896;28;20024;-81
2023/03/31 08:57:32;;;;;;;10.20;4.53;;;;;;;;;;5053370;28;20502;-77
2023/03/31 09:00:05;;;;;;;7.80;4.43;;;;;;;;;;5050660;28;20020;-80
2023/03/31 09:02:30;;;;;;;10.57;4.78;;;;;;;;;;5047100;28;20107;-80
2023/03/31 09:05:10;;;;;;;9.80;4.75;;;;;;;;;;5049050;28;20127;-80
2023/03/31 09:07:45;;;;;;;7.47;3.92;;;;;;;;;;5041329;28;20074;-81
2023/03/31 09:10:10;;;;;;;8.88;4.05;;;;;;;;;;5044929;28;21065;-78
2023/03/31 09:12:52;;;;;;;6.80;4.43;;;;;;;;;;5039401;28;20104;-77
2023/03/31 09:15:24;;;;;;;9.00;3.65;;;;;;;;;;5044559;28;20063;-81
2023/03/31 09:17:50;;;;;;;9.25;4.00;;;;;;;;;;5047604;28;20117;-79
2023/03/31 09:20:35;;;;;;;4.70;3.38;;;;;;;;;;5046097;28;20095;-79
2023/03/31 09:23:20;;;;;;;6.30;2.97;;;;;;;;;;5051734;28;20028;-80
2023/03/31 09:25:46;;;;;;;8.95;4.07;;;;;;;;;;5034426;28;20727;-80
2023/03/31 09:28:22;;;;;;;5.88;3.08;;;;;;;;;;5045842;28;20090;-81
2023/03/31 09:30:51;;;;;;;4.35;3.08;;;;;;;;;;5048572;28;20572;-81
2023/03/31 09:33:17;;;;;;;7.18;3.38;;;;;;;;;;5053545;28;20028;-78
2023/03/31 09:35:42;;;;;;;7.63;2.33;;;;;;;;;;5054230;28;20051;-79
2023/03/31 09:38:11;;;;;;;4.95;2.40;;;;;;;;;;5049100;28;20021;-81
2023/03/31 09:40:37;;;;;;;3.75;2.10;;;;;;;;;;5051102;28;20089;-77
2023/03/31 09:43:05;;;;;;;5.25;2.20;;;;;;;;;;5031804;28;20489;-77
2023/03/31 09:45:32;;;;;;;3.97;2.50;;;;;;;;;;5048128;28;20032;-79
2023/03/31 09:47:59;;;;;;;5.45;2.42;;;;;;;;;;5050311;28;20021;-77
2023/03/31 09:50:25;;;;;;;7.70;3.38;;;;;;;;;;5044284;28;20042;-81
2023/03/31 09:52:58;;;;;;;6.72;2.08;;;;;;;;;;5041541;28;20480;-79
2023/03/31 09:55:31;;;;;;;5.25;2.08;;;;;;;;;;5044777;28;20029;-79
2023/03/31 09:57:58;;;;;;;6.70;2.83;;;;;;;;;;5060083;28;20107;-80
2023/03/31 10:00:26;;;;;;;4.63;2.83;;;;;;;;;;5047131;28;20042;-78
2023/03/31 10:02:53;;;;;;;3.10;1.90;;;;;;;;;;5055283;28;20542;-79
2023/03/31 10:05:39;;;;;;;8.98;1.95;;;;;;;;;;5048534;28;20175;-74
2023/03/31 10:08:24;;;;;;;4.78;1.55;;;;;;;;;;5041781;28;20029;-76
2023/03/31 10:10:57;;;;;;;3.92;1.80;;;;;;;;;;5045397;28;20024;-79
2023/03/31 10:13:24;;;;;;;3.97;1.95;;;;;;;;;;5045726;28;20021;-78
2023/03/31 10:16:11;;;;;;;5.60;2.17;;;;;;;;;;5045948;28;20021;-80
2023/03/31 10:18:41;;;;;;;3.88;2.22;;;;;;;;;;5045899;28;20524;-81
2023/03/31 10:21:14;;;;;;;3.83;2.00;;;;;;;;;;5048399;28;20389;-81
2023/03/31 10:23:44;;;;;;;5.30;1.80;;;;;;;;;;5074573;28;20115;-80
2023/03/31 10:26:12;;;;;;;5.43;1.98;;;;;;;;;;5052099;28;20024;-81
2023/03/31 10:28:39;;;;;;;4.67;1.90;;;;;;;;;;5046161;28;20048;-78
2023/03/31 10:31:05;;;;;;;3.03;1.95;;;;;;;;;;5055778;28;20044;-82
2023/03/31 10:33:33;;;;;;;6.35;2.17;;;;;;;;;;5041731;28;20754;-79
2023/03/31 10:36:06;;;;;;;5.10;1.80;;;;;;;;;;5053136;28;20037;-84
2023/03/31 10:38:39;;;;;;;7.53;2.45;;;;;;;;;;5052435;28;20628;-83
2023/03/31 10:41:05;;;;;;;4.68;2.42;;;;;;;;;;5053040;28;20059;-83
2023/03/31 10:43:46;;;;;;;4.65;2.05;;;;;;;;;;5052545;28;20044;-83
2023/03/31 10:46:12;;;;;;;5.35;1.80;;;;;;;;;;5044459;28;20049;-85
2023/03/31 10:48:39;;;;;;;6.73;2.00;;;;;;;;;;5050207;28;20249;-84
2023/03/31 10:51:18;;;;;;;5.25;1.75;;;;;;;;;;5046887;28;20705;-85
2023/03/31 10:53:48;;;;;;;4.78;1.73;;;;;;;;;;5036802;28;20017;-84
2023/03/31 10:56:13;;;;;;;4.72;1.60;;;;;;;;;;5027927;28;20040;-83
2023/03/31 10:58:46;;;;;;;2.38;1.92;;;;;;;;;;5046413;28;20021;-83
2023/03/31 11:01:31;;;;;;;3.78;1.45;;;;;;;;;;5051994;28;20025;-84
2023/03/31 11:04:15;;;;;;;5.25;1.80;;;;;;;;;;5039263;28;20101;-82
2023/03/31 11:06:51;;;;;;;8.85;2.45;;;;;;;;;;5037330;28;20116;-83
2023/03/31 11:09:31;;;;;;;4.80;2.10;;;;;;;;;;5053960;28;20029;-87
2023/03/31 11:12:09;;;;;;;5.70;1.95;;;;;;;;;;5051248;28;20027;-82
2023/03/31 11:14:39;;;;;;;4.18;1.52;;;;;;;;;;5047345;28;20104;-85
2023/03/31 11:17:11;;;;;;;5.95;1.60;;;;;;;;;;5055946;28;20130;-85
2023/03/31 11:19:55;;;;;;;5.70;1.80;;;;;;;;;;5051113;28;20076;-83
2023/03/31 11:22:36;;;;;;;5.63;1.98;;;;;;;;;;5032773;28;20115;-84
2023/03/31 11:25:11;;;;;;;3.95;1.85;;;;;;;;;;5034585;28;20459;-83
2023/03/31 11:27:37;;;;;;;4.20;2.20;;;;;;;;;;5042447;28;20028;-85
2023/03/31 11:30:12;;;;;;;3.78;2.15;;;;;;;;;;5033192;28;20090;-86
2023/03/31 11:32:46;;;;;;;8.52;2.55;;;;;;;;;;5049838;28;20374;-78
2023/03/31 11:35:15;;;;;;;3.60;1.88;;;;;;;;;;5054962;28;20040;-84
2023/03/31 11:38:03;;;;;;;6.15;1.88;;;;;;;;;;5039595;28;20039;-83
2023/03/31 11:40:31;;;;;;;5.25;2.05;;;;;;;;;;5067379;28;20024;-80
2023/03/31 11:43:20;;;;;;;6.43;2.07;;;;;;;;;;5051965;28;20047;-81
2023/03/31 11:45:54;;;;;;;3.75;1.60;;;;;;;;;;5025823;28;20086;-83
2023/03/31 11:48:32;;;;;;;5.40;2.20;;;;;;;;;;5051217;28;20025;-77
2023/03/31 11:50:59;;;;;;;3.13;1.93;;;;;;;;;;5033031;28;20039;-79
2023/03/31 11:53:28;;;;;;;7.25;2.33;;;;;;;;;;5054052;28;20093;-78
2023/03/31 11:55:55;;;;;;;4.13;1.80;;;;;;;;;;5032426;28;20074;-81
2023/03/31 11:58:23;;;;;;;6.78;2.10;;;;;;;;;;5057860;28;20086;-80
2023/03/31 12:00:54;;;;;;;4.65;1.77;;;;;;;;;;5040321;28;20508;-78
2023/03/31 12:03:20;;;;;;;4.03;2.20;;;;;;;;;;5059369;28;20079;-78
2023/03/31 12:06:16;;;;;;;5.90;1.90;;;;;;;;;;5053338;28;20134;-80
2023/03/31 12:09:01;;;;;;;4.53;1.90;;;;;;;;;;5044946;28;20119;-81
2023/03/31 12:11:50;;;;;;;4.90;1.58;;;;;;;;;;5037275;28;20029;-77
2023/03/31 12:14:25;;;;;;;5.65;3.00;;;;;;;;;;5042370;28;20798;-80
2023/03/31 12:16:56;;;;;;;5.05;2.03;;;;;;;;;;5053109;28;20467;-77
2023/03/31 12:19:40;;;;;;;4.95;1.70;;;;;;;;;;5046650;28;20028;-80
2023/03/31 12:22:08;;;;;;;5.15;1.77;;;;;;;;;;5055299;28;20060;-79
2023/03/31 12:24:35;;;;;;;5.13;1.67;;;;;;;;;;5042132;28;20043;-78
2023/03/31 12:27:00;;;;;;;4.40;1.70;;;;;;;;;;5039311;28;20027;-81
2023/03/31 12:29:34;;;;;;;4.27;2.00;;;;;;;;;;5062319;28;20025;-79
2023/03/31 12:32:04;;;;;;;3.30;1.75;;;;;;;;;;5040880;28;20047;-78
2023/03/31 12:34:30;;;;;;;5.90;1.75;;;;;;;;;;5046975;28;20052;-81
2023/03/31 12:37:15;;;;;;;7.15;2.13;;;;;;;;;;5041517;28;20101;-82
2023/03/31 12:40:00;;;;;;;5.18;2.05;;;;;;;;;;5061042;28;20029;-78
2023/03/31 12:42:29;;;;;;;4.75;1.85;;;;;;;;;;5057958;28;20094;-79
2023/03/31 12:45:06;;;;;;;5.93;2.30;;;;;;;;;;5059779;28;20532;-83
2023/03/31 12:47:44;;;;;;;6.97;1.98;;;;;;;;;;5031457;28;20029;-82
2023/03/31 12:50:28;;;;;;;7.40;2.00;;;;;;;;;;5042216;28;20070;-77
2023/03/31 12:52:53;;;;;;;4.72;1.65;;;;;;;;;;5056185;28;20043;-79
2023/03/31 12:55:24;;;;;;;2.73;1.53;;;;;;;;;;5050836;28;20471;-76
2023/03/31 12:57:50;;;;;;;4.13;1.63;;;;;;;;;;5075602;28;20024;-75
2023/03/31 13:00:23;;;;;;;8.45;2.10;;;;;;;;;;5052261;28;20032;-86
2023/03/31 13:02:49;;;;;;;2.88;1.60;;;;;;;;;;5039818;28;20070;-89
2023/03/31 13:05:33;;;;;;;5.38;1.92;;;;;;;;;;5046579;28;20496;-85
2023/03/31 13:07:58;;;;;;;7.13;2.22;;;;;;;;;;5063075;28;20032;-85
2023/03/31 13:10:25;;;;;;;5.07;1.97;;;;;;;;;;5027102;28;20025;-83
2023/03/31 13:12:59;;;;;;;7.20;1.80;;;;;;;;;;5052439;28;20259;-77
2023/03/31 13:15:24;;;;;;;4.18;2.00;;;;;;;;;;5054197;28;20703;-77
2023/03/31 13:17:57;;;;;;;3.63;1.58;;;;;;;;;;5042474;28;20116;-78
2023/03/31 13:20:26;;;;;;;8.63;2.08;;;;;;;;;;5048302;28;20489;-79
2023/03/31 13:22:58;;;;;;;4.30;1.80;;;;;;;;;;5042321;28;20106;-78
2023/03/31 13:25:30;;;;;;;3.80;1.40;;;;;;;;;;5065498;28;20051;-78
2023/03/31 13:27:56;;;;;;;4.13;1.88;;;;;;;;;;5048095;28;20042;-80
2023/03/31 13:30:47;;;;;;;3.92;1.77;;;;;;;;;;5059541;28;20513;-81
2023/03/31 13:33:13;;;;;;;3.40;1.88;;;;;;;;;;5038316;28;20029;-81
2023/03/31 13:35:40;;;;;;;3.53;1.47;;;;;;;;;;5041609;28;20382;-79
2023/03/31 13:38:11;;;;;;;2.55;1.10;;;;;;;;;;5041258;28;20266;-77
2023/03/31 13:40:48;;;;;;;3.67;1.42;;;;;;;;;;5042086;28;20493;-81
2023/03/31 13:43:16;;;;;;;5.72;2.00;;;;;;;;;;5041893;28;20023;-81
2023/03/31 13:45:47;;;;;;;5.43;1.30;;;;;;;;;;5040611;28;20043;-79
2023/03/31 13:48:25;;;;;;;2.83;1.50;;;;;;;;;;5042332;28;20032;-79
2023/03/31 13:50:56;;;;;;;3.78;1.50;;;;;;;;;;5041078;28;20021;-80
2023/03/31 13:53:40;;;;;;;4.25;1.48;;;;;;;;;;5041730;28;20396;-81
2023/03/31 13:56:08;;;;;;;5.50;1.80;;;;;;;;;;5051226;28;20025;-80
2023/03/31 13:58:34;;;;;;;3.83;1.40;;;;;;;;;;5048291;28;20524;-78
2023/03/31 14:01:18;;;;;;;4.18;1.50;;;;;;;;;;5041699;28;20051;-81
2023/03/31 14:03:49;;;;;;;6.13;1.80;;;;;;;;;;5060332;28;20040;-80
2023/03/31 14:06:17;;;;;;;4.65;1.60;;;;;;;;;;5054497;28;20541;-80
2023/03/31 14:08:42;;;;;;;2.72;1.58;;;;;;;;;;5034944;28;20032;-79
2023/03/31 14:11:20;;;;;;;5.03;1.80;;;;;;;;;;5045809;28;20019;-78
2023/03/31 14:14:03;;;;;;;4.28;1.67;;;;;;;;;;5038620;28;20274;-79
2023/03/31 14:16:31;;;;;;;4.40;1.70;;;;;;;;;;5030427;28;20024;-78
2023/03/31 14:19:04;;;;;;;2.60;1.48;;;;;;;;;;5048285;28;20504;-78
2023/03/31 14:21:29;;;;;;;3.15;1.40;;;;;;;;;;5045927;28;20825;-77
2023/03/31 14:24:00;;;;;;;3.20;1.67;;;;;;;;;;5048997;28;20032;-80
2023/03/31 14:26:37;;;;;;;4.10;1.50;;;;;;;;;;5035044;28;20063;-79
2023/03/31 14:29:11;;;;;;;4.38;1.80;;;;;;;;;;5029308;28;20094;-76
2023/03/31 14:31:44;;;;;;;2.65;1.48;;;;;;;;;;5029051;28;20017;-80
2023/03/31 14:34:15;;;;;;;2.53;1.30;;;;;;;;;;5043096;28;20052;-77
2023/03/31 14:36:40;;;;;;;7.38;1.95;;;;;;;;;;5035811;28;20481;-79
2023/03/31 14:39:09;;;;;;;8.20;1.83;;;;;;;;;;5048072;28;20024;-78
2023/03/31 14:41:36;;;;;;;2.20;1.30;;;;;;;;;;5035258;28;20262;-79
2023/03/31 14:44:05;;;;;;;6.93;1.75;;;;;;;;;;5045233;28;20086;-77
2023/03/31 14:46:33;;;;;;;4.22;1.88;;;;;;;;;;5048022;28;20164;-79
2023/03/31 14:49:04;;;;;;;5.65;1.15;;;;;;;;;;5053240;28;20021;-78
2023/03/31 14:51:30;;;;;;;4.72;2.10;;;;;;;;;;5051388;28;20016;-80
2023/03/31 14:53:59;;;;;;;5.63;1.48;;;;;;;;;;5062693;28;20094;-79
2023/03/31 14:56:25;;;;;;;;;;;;;;;;;;5050626;28;20029;-82
2023/03/31 14:58:51;;;;;;;4.82;1.70;;;;;;;;;;5047810;28;19905;-81
2023/03/31 15:01:19;;;;;;;8.98;1.70;;;;;;;;;;5040355;28;20548;-79
2023/03/31 15:03:45;;;;;;;8.43;2.08;;;;;;;;;;5036318;28;20859;-81
2023/03/31 15:06:11;;;;;;;3.45;1.90;;;;;;;;;;5038991;28;20066;-80
2023/03/31 15:08:37;;;;;;;7.70;1.92;;;;;;;;;;5048222;28;20074;-80
2023/03/31 15:11:04;;;;;;;3.90;1.83;;;;;;;;;;5030437;28;20021;-82
2023/03/31 15:13:34;;;;;;;4.07;1.67;;;;;;;;;;5045382;28;20518;-80
2023/03/31 15:16:17;;;;;;;4.53;1.92;;;;;;;;;;5050017;28;20138;-80
2023/03/31 15:18:43;;;;;;;5.43;1.95;;;;;;;;;;5052901;28;20535;-81
2023/03/31 15:21:09;;;;;;;2.53;1.33;;;;;;;;;;5043919;28;20032;-80
2023/03/31 15:23:35;;;;;;;6.65;2.05;;;;;;;;;;5048284;28;20515;-82
2023/03/31 15:26:03;;;;;;;2.58;1.73;;;;;;;;;;5032649;28;20068;-83
2023/03/31 15:28:31;;;;;;;5.57;2.10;;;;;;;;;;5031445;28;20035;-80
2023/03/31 15:30:56;;;;;;;4.55;1.85;;;;;;;;;;5060045;28;20116;-80
2023/03/31 15:33:25;;;;;;;2.50;1.50;;;;;;;;;;5038278;28;20097;-81
2023/03/31 15:35:51;;;;;;;4.38;1.85;;;;;;;;;;5036824;28;20135;-82
2023/03/31 15:38:19;;;;;;;6.35;1.70;;;;;;;;;;5038293;28;20170;-81
2023/03/31 15:40:49;;;;;;;5.37;1.93;;;;;;;;;;5056879;28;20017;-80
2023/03/31 15:43:16;;;;;;;6.03;1.70;;;;;;;;;;5057087;28;20059;-80
2023/03/31 15:45:50;;;;;;;5.45;1.77;;;;;;;;;;5045668;28;20043;-80
2023/03/31 15:48:17;;;;;;;6.70;1.83;;;;;;;;;;5058721;28;20027;-82
2023/03/31 15:50:43;;;;;;;9.48;1.60;;;;;;;;;;5060301;28;20031;-80
2023/03/31 15:53:44;;;;;;;9.07;1.83;;;;;;;;;;5058750;28;20059;-80
2023/03/31 15:56:23;;;;;;;5.75;1.77;;;;;;;;;;4960117;28;20769;-81
2023/03/31 15:58:56;;;;;;;5.28;1.90;;;;;;;;;;5033254;28;20553;-79
2023/03/31 16:01:22;;;;;;;6.53;1.58;;;;;;;;;;5041999;28;20561;-79
2023/03/31 16:03:51;;;;;;;7.05;1.50;;;;;;;;;;5041963;28;20094;-80
2023/03/31 16:06:27;;;;;;;5.68;2.05;;;;;;;;;;5048177;28;20043;-80
2023/03/31 16:08:58;;;;;;;4.22;1.85;;;;;;;;;;5054173;28;20029;-79
2023/03/31 16:11:27;;;;;;;3.42;2.22;;;;;;;;;;5039507;28;20017;-80
2023/03/31 16:13:55;;;;;;;3.75;1.80;;;;;;;;;;5058831;28;20031;-80
2023/03/31 16:16:21;;;;;;;4.15;2.00;;;;;;;;;;5061073;28;20040;-80
2023/03/31 16:18:51;;;;;;;5.70;2.03;;;;;;;;;;5062474;28;20069;-80
2023/03/31 16:21:37;;;;;;;6.82;1.92;;;;;;;;;;5061202;28;20136;-79
2023/03/31 16:24:03;;;;;;;7.40;2.30;;;;;;;;;;5045283;28;20055;-81
2023/03/31 16:26:29;;;;;;;5.60;2.20;;;;;;;;;;5059063;28;20115;-80
2023/03/31 16:28:56;;;;;;;4.45;2.05;;;;;;;;;;5059612;28;20013;-81
2023/03/31 16:31:33;;;;;;;6.57;2.00;;;;;;;;;;5061473;28;20127;-81
2023/03/31 16:33:59;;;;;;;5.10;2.28;;;;;;;;;;5055818;28;20025;-83
2023/03/31 16:36:24;;;;;;;4.65;1.90;;;;;;;;;;5049275;28;20056;-83
2023/03/31 16:38:53;;;;;;;7.70;2.50;;;;;;;;;;5044623;28;20425;-83
2023/03/31 16:41:20;;;;;;;7.05;2.65;;;;;;;;;;5044693;28;20013;-82
2023/03/31 16:43:45;;;;;;;11.05;4.82;;;;;;;;;;5053088;28;20543;-84
2023/03/31 16:46:11;;;;;;;4.32;2.30;;;;;;;;;;5051496;28;20029;-83
2023/03/31 16:48:36;;;;;;;6.75;1.92;;;;;;;;;;5034727;28;20039;-82
2023/03/31 16:51:02;;;;;;;3.83;2.20;;;;;;;;;;5054854;28;20017;-83
2023/03/31 16:53:29;;;;;;;5.18;3.38;;;;;;;;;;5042755;28;20478;-84
2023/03/31 16:55:56;;;;;;;8.80;2.60;;;;;;;;;;5049289;28;20547;-83
2023/03/31 16:58:22;;;;;;;10.18;2.53;;;;;;;;;;5059398;28;20030;-83
2023/03/31 17:00:48;;;;;;;3.22;2.33;;;;;;;;;;5057176;28;20840;-83
2023/03/31 17:03:15;;;;;;;4.22;2.70;;;;;;;;;;5062736;28;20017;-83
2023/03/31 17:05:41;;;;;;;7.38;2.92;;;;;;;;;;5059442;28;20579;-84
2023/03/31 17:08:07;;;;;;;4.88;3.45;;;;;;;;;;5061356;28;20030;-83
2023/03/31 17:10:32;;;;;;;10.50;6.68;;;;;;;;;;5045709;28;20029;-84